McClure, South Dakota
Current Conditions -  °F | °C
As of 4:53 PM on Monday 24 Nov 2014 (Local Time) from KPIR Reporting Station
Clear Clear  
Wind Chill: 17°   Ceiling: Unl
Heat Index: 27°   Visibility: 10mi
Dew Point:   Wind: 10mph
Humidity: 43%   Direction: 330°NNW
Pressure: 30.01"   Gusts: NA
Location:  44.0206°N, 100.306°W
Report Text: KPIR 242253Z AUTO 33009KT 10SM CLR M03/M14 A3001 RMK AO2 SLP185 T10281139
Loading
Personal Weather Stations






























Interactive Weather Map New forecast layout! Learn more

10-Day Weather Forecast

Advertisements
Track Severe Weather on mobile